Terminal Aerodrome Forecast
Issued by NWS Paducah, KY

Home | Current Version | Previous Version | Text Only | Print | Product List | Glossary On
Versions: 1 2 3 4 5 6 7 8 9 10 11 12 13 14 15 16 17 18 19 20 21
000
FTUS43 KPAH 221013 AAB
TAFPAH
TAF AMD
KPAH 221013Z 2210/2306 VRB03KT 5SM BR SCT090 OVC150
      TEMPO 2211/2214 2SM BR BKN010
     FM221600 19004KT P6SM BKN020
     FM222000 19005KT P6SM SCT100=

USA.gov is the U.S. government's official web portal to all federal, state and local government web resources and services.